Time;durP1;ratioP1;P1;durP2;ratioP2;P2;SDS_P1;SDS_P2;PMS_P1;PMS_P2;Temp;Humidity;BMP_temperature;BMP_pressure;BME280_temperature;BME280_humidity;BME280_pressure;Samples;Min_cycle;Max_cycle;Signal;HPM_P1;HPM_P2
2024/01/03 00:01:21;;;;;;;1999.90;999.90;;;11.70;76.70;;;;;;5014807;28;21325;-76
2024/01/03 00:03:47;;;;;;;1999.90;999.90;;;11.70;76.10;;;;;;5013943;28;20195;-75
2024/01/03 00:06:14;;;;;;;1999.90;999.90;;;11.70;77.80;;;;;;5014833;28;20170;-76
2024/01/03 00:08:40;;;;;;;1999.90;999.90;;;11.60;78.80;;;;;;5014714;28;20169;-76
2024/01/03 00:11:07;;;;;;;1999.90;999.90;;;11.60;78.90;;;;;;5014469;28;20774;-76
2024/01/03 00:13:38;;;;;;;1999.90;999.90;;;11.50;79.80;;;;;;5068989;22;20530;-74
2024/01/03 00:16:07;;;;;;;1999.90;999.90;;;11.60;81.90;;;;;;5033928;28;20431;-74
2024/01/03 00:18:52;;;;;;;1999.90;999.90;;;11.50;77.90;;;;;;5030700;28;20407;-73
2024/01/03 00:21:23;;;;;;;1999.90;999.90;;;11.50;79.50;;;;;;5013954;28;20519;-73
2024/01/03 00:24:04;;;;;;;1999.90;999.90;;;11.50;80.90;;;;;;5013695;28;20424;-74
2024/01/03 00:26:32;;;;;;;1999.90;999.90;;;11.50;74.70;;;;;;5012666;28;20514;-74
2024/01/03 00:28:58;;;;;;;1999.90;999.90;;;11.40;75.50;;;;;;5013903;28;20423;-74
2024/01/03 00:31:24;;;;;;;1999.90;999.90;;;11.50;72.90;;;;;;5013775;28;20977;-73
2024/01/03 00:33:49;;;;;;;1999.90;999.90;;;11.50;70.50;;;;;;5013765;28;20431;-73
2024/01/03 00:36:16;;;;;;;1999.90;999.90;;;11.40;72.30;;;;;;5013646;28;20177;-74
2024/01/03 00:38:42;;;;;;;1999.90;999.90;;;11.40;69.50;;;;;;5025999;28;20172;-73
2024/01/03 00:41:12;;;;;;;1999.90;999.90;;;11.40;72.00;;;;;;5033271;28;20410;-73
2024/01/03 00:43:38;;;;;;;1999.90;999.90;;;11.40;69.50;;;;;;5033226;28;20513;-73
2024/01/03 00:46:05;;;;;;;1999.90;999.90;;;11.50;70.90;;;;;;5033398;28;20407;-73
2024/01/03 00:48:32;;;;;;;1999.90;999.90;;;11.40;76.00;;;;;;5030666;28;20441;-74
2024/01/03 00:50:58;;;;;;;1999.90;999.90;;;11.50;75.40;;;;;;5013326;28;20777;-73
2024/01/03 00:53:24;;;;;;;1999.90;999.90;;;11.50;75.40;;;;;;5031205;28;20433;-74
2024/01/03 00:55:51;;;;;;;1999.90;999.90;;;11.50;78.90;;;;;;5033255;28;20442;-73
2024/01/03 00:58:17;;;;;;;1999.90;999.90;;;11.50;82.00;;;;;;5033127;28;20894;-74
2024/01/03 01:00:43;;;;;;;1999.90;999.90;;;11.50;80.60;;;;;;5033168;28;20436;-74
2024/01/03 01:03:08;;;;;;;1999.90;999.90;;;11.50;83.70;;;;;;5032855;28;20458;-73
2024/01/03 01:05:34;;;;;;;1999.90;999.90;;;11.50;92.00;;;;;;5033054;28;20176;-73
2024/01/03 01:08:00;;;;;;;1999.90;999.90;;;11.30;97.90;;;;;;5033055;28;20399;-73
2024/01/03 01:10:26;;;;;;;1999.90;999.90;;;11.10;99.90;;;;;;5033044;28;20444;-73
2024/01/03 01:12:52;;;;;;;1999.90;999.90;;;11.10;99.90;;;;;;5032587;28;20573;-74
2024/01/03 01:15:17;;;;;;;1999.90;999.90;;;11.10;99.90;;;;;;5031943;28;20785;-74
2024/01/03 01:17:43;;;;;;;1999.90;999.90;;;11.10;98.40;;;;;;5032859;28;20257;-73
2024/01/03 01:20:09;;;;;;;1999.90;999.90;;;11.20;99.50;;;;;;5031751;28;20168;-74
2024/01/03 01:22:34;;;;;;;1999.90;999.90;;;11.10;99.80;;;;;;5029524;28;20216;-74
2024/01/03 01:25:00;;;;;;;1999.90;999.90;;;11.10;99.90;;;;;;5032604;28;20421;-74
2024/01/03 01:27:25;;;;;;;1999.90;999.90;;;11.10;99.90;;;;;;5032452;28;20754;-73
2024/01/03 01:29:51;;;;;;;1999.90;999.90;;;11.10;99.90;;;;;;5032520;28;20173;-73
2024/01/03 01:32:18;;;;;;;1999.90;999.90;;;11.10;99.90;;;;;;5032367;28;20219;-73
2024/01/03 01:34:43;;;;;;;1999.90;999.90;;;11.10;99.90;;;;;;5032689;28;20492;-73
2024/01/03 01:37:09;;;;;;;1999.90;999.90;;;11.10;99.90;;;;;;5016672;28;20184;-73
2024/01/03 01:39:35;;;;;;;1999.90;999.90;;;11.20;99.90;;;;;;5012570;28;20191;-73
2024/01/03 01:42:00;;;;;;;1999.90;999.90;;;11.20;99.90;;;;;;5027014;28;20211;-73
2024/01/03 01:44:26;;;;;;;1999.90;999.90;;;11.20;99.90;;;;;;5014275;28;20251;-73
2024/01/03 01:46:52;;;;;;;1999.90;999.90;;;11.10;99.90;;;;;;5012524;28;20199;-73
2024/01/03 01:49:19;;;;;;;1999.90;999.90;;;11.10;99.90;;;;;;5012380;28;20181;-73
2024/01/03 01:51:46;;;;;;;1999.90;999.90;;;11.00;99.90;;;;;;5012210;28;20434;-73
2024/01/03 01:54:13;;;;;;;1999.90;999.90;;;11.00;99.90;;;;;;5012579;28;20419;-73
2024/01/03 01:56:40;;;;;;;1999.90;999.90;;;11.00;99.90;;;;;;5023815;28;20425;-73
2024/01/03 01:59:09;;;;;;;1999.90;999.90;;;10.90;99.90;;;;;;5032112;28;20425;-73
2024/01/03 02:01:36;;;;;;;1999.90;999.90;;;10.80;99.90;;;;;;5020986;28;20462;-74
2024/01/03 02:04:05;;;;;;;1999.90;999.90;;;10.80;99.90;;;;;;5011952;28;20415;-74
2024/01/03 02:06:32;;;;;;;1999.90;999.90;;;10.80;99.90;;;;;;5012169;28;20901;-73
2024/01/03 02:08:57;;;;;;;1999.90;999.90;;;10.90;99.90;;;;;;5012423;28;20425;-73
2024/01/03 02:11:23;;;;;;;1999.90;999.90;;;10.90;99.90;;;;;;5012218;28;20798;-74
2024/01/03 02:13:48;;;;;;;1999.90;999.90;;;10.90;99.90;;;;;;5016317;28;20230;-73
2024/01/03 02:16:14;;;;;;;1999.90;999.90;;;10.90;99.90;;;;;;5030503;28;20175;-72
2024/01/03 02:18:41;;;;;;;1999.90;999.90;;;10.90;99.90;;;;;;5031725;28;20267;-74
2024/01/03 02:21:13;;;;;;;1999.90;999.90;;;10.90;99.90;;;;;;5031931;28;20542;-73
2024/01/03 02:23:39;;;;;;;1999.90;999.90;;;10.90;99.90;;;;;;5031427;28;20466;-73
2024/01/03 02:26:04;;;;;;;1999.90;999.90;;;10.80;99.90;;;;;;5034604;28;20422;-74
2024/01/03 02:28:30;;;;;;;1999.90;999.90;;;10.80;99.90;;;;;;5038391;28;20186;-73
2024/01/03 02:30:55;;;;;;;1999.90;999.90;;;10.80;99.90;;;;;;5038895;28;20311;-73
2024/01/03 02:33:21;;;;;;;1999.90;999.90;;;10.90;99.90;;;;;;5020924;28;20199;-73
2024/01/03 02:35:46;;;;;;;1999.90;999.90;;;10.80;99.90;;;;;;5017184;28;20557;-73
2024/01/03 02:38:12;;;;;;;1999.90;999.90;;;10.80;99.90;;;;;;5034860;28;20214;-73
2024/01/03 02:40:38;;;;;;;1999.90;999.90;;;10.80;99.90;;;;;;5036883;28;20613;-74
2024/01/03 02:43:03;;;;;;;1999.90;999.90;;;10.90;99.90;;;;;;5037978;28;20226;-73
2024/01/03 02:45:29;;;;;;;1999.90;999.90;;;10.80;99.90;;;;;;5036784;28;20646;-74
2024/01/03 02:47:55;;;;;;;1999.90;999.90;;;10.80;99.90;;;;;;5033000;28;20988;-74
2024/01/03 02:50:21;;;;;;;1999.90;999.90;;;10.90;99.90;;;;;;5035059;28;20171;-74
2024/01/03 02:52:46;;;;;;;1999.90;999.90;;;10.90;99.90;;;;;;5037778;28;20933;-74
2024/01/03 02:55:12;;;;;;;1999.90;999.90;;;10.90;99.60;;;;;;5038352;28;20255;-73
2024/01/03 02:57:37;;;;;;;1999.90;999.90;;;10.90;99.90;;;;;;5038319;28;20259;-73
2024/01/03 03:00:03;;;;;;;1999.90;999.90;;;10.80;99.90;;;;;;5030000;28;20197;-73
2024/01/03 03:02:29;;;;;;;1999.90;999.90;;;10.80;99.90;;;;;;5038091;28;20286;-73
2024/01/03 03:04:55;;;;;;;1999.90;999.90;;;10.70;99.90;;;;;;5037990;28;20465;-72
2024/01/03 03:07:20;;;;;;;1999.90;999.90;;;10.80;99.90;;;;;;5021212;28;20222;-74
2024/01/03 03:09:46;;;;;;;1999.90;999.90;;;10.70;99.90;;;;;;5018502;28;20655;-73
2024/01/03 03:12:11;;;;;;;1999.90;999.90;;;10.70;99.90;;;;;;5018351;28;20243;-74
2024/01/03 03:14:37;;;;;;;1999.90;999.90;;;10.70;99.90;;;;;;5018075;28;20181;-74
2024/01/03 03:17:03;;;;;;;1999.90;999.90;;;10.60;99.90;;;;;;5018115;28;20601;-73
2024/01/03 03:19:29;;;;;;;1999.90;999.90;;;10.50;99.90;;;;;;5016716;28;20176;-73
2024/01/03 03:21:54;;;;;;;1999.90;999.90;;;10.50;99.90;;;;;;5017941;28;20204;-73
2024/01/03 03:24:20;;;;;;;1999.90;999.90;;;10.50;99.90;;;;;;5017965;28;20422;-73
2024/01/03 03:26:47;;;;;;;1999.90;999.90;;;10.40;99.90;;;;;;5018057;28;20247;-74
2024/01/03 03:29:12;;;;;;;1999.90;999.90;;;10.40;99.90;;;;;;5018121;28;20208;-72
2024/01/03 03:31:38;;;;;;;1999.90;999.90;;;10.40;99.90;;;;;;5036839;28;20471;-73
2024/01/03 03:34:03;;;;;;;1999.90;999.90;;;10.40;99.90;;;;;;5037438;28;20175;-73
2024/01/03 03:36:29;;;;;;;1999.90;999.90;;;10.40;99.90;;;;;;5037617;28;20171;-72
2024/01/03 03:38:54;;;;;;;1999.90;999.90;;;10.30;99.90;;;;;;5033548;28;20175;-73
2024/01/03 03:41:21;;;;;;;1999.90;999.90;;;10.30;99.90;;;;;;5035107;28;20708;-73
2024/01/03 03:43:46;;;;;;;1999.90;999.90;;;10.30;99.90;;;;;;5030979;28;20187;-74
2024/01/03 03:46:12;;;;;;;1999.90;999.90;;;10.30;99.90;;;;;;5014702;28;20419;-73
2024/01/03 03:48:38;;;;;;;1999.90;999.90;;;10.30;99.90;;;;;;5014899;28;20560;-73
2024/01/03 03:51:04;;;;;;;1999.90;999.90;;;10.40;99.90;;;;;;5029018;28;20175;-74
2024/01/03 03:53:30;;;;;;;1999.90;999.90;;;10.30;99.90;;;;;;5032708;28;20281;-73
2024/01/03 03:55:55;;;;;;;1999.90;999.90;;;10.40;99.90;;;;;;5034331;28;20913;-73
2024/01/03 03:58:21;;;;;;;1999.90;999.90;;;10.40;99.90;;;;;;5026239;28;20175;-73
2024/01/03 04:00:47;;;;;;;1999.90;999.90;;;10.40;99.90;;;;;;5026196;28;20172;-74
2024/01/03 04:03:12;;;;;;;1999.90;999.90;;;10.50;99.90;;;;;;5033908;28;20700;-74
2024/01/03 04:05:38;;;;;;;1999.90;999.90;;;10.50;99.90;;;;;;5034223;28;20172;-73
2024/01/03 04:08:04;;;;;;;1999.90;999.90;;;10.40;99.90;;;;;;5034180;28;20213;-73
2024/01/03 04:10:30;;;;;;;1999.90;999.90;;;10.50;99.90;;;;;;5016698;28;20410;-74
2024/01/03 04:12:56;;;;;;;1999.90;999.90;;;10.40;99.90;;;;;;5026918;28;20459;-72
2024/01/03 04:15:22;;;;;;;1999.90;999.90;;;10.40;99.90;;;;;;5017567;28;20178;-72
2024/01/03 04:17:48;;;;;;;1999.90;999.90;;;10.40;99.90;;;;;;5020837;28;20183;-72
2024/01/03 04:20:14;;;;;;;1999.90;999.90;;;10.40;99.90;;;;;;5014156;28;20431;-72
2024/01/03 04:22:43;;;;;;;1999.90;999.90;;;10.40;99.90;;;;;;5017110;28;20212;-72
2024/01/03 04:25:10;;;;;;;1999.90;999.90;;;10.40;99.90;;;;;;5026355;28;20423;-72
2024/01/03 04:27:36;;;;;;;1999.90;999.90;;;10.40;99.90;;;;;;5014008;28;20418;-73
2024/01/03 04:30:02;;;;;;;1999.90;999.90;;;10.40;99.90;;;;;;5014501;28;20406;-73
2024/01/03 04:32:28;;;;;;;1999.90;999.90;;;10.40;99.90;;;;;;5014249;28;20828;-72
2024/01/03 04:34:53;;;;;;;1999.90;999.90;;;10.40;99.90;;;;;;5018462;28;20421;-72
2024/01/03 04:37:19;;;;;;;1999.90;999.90;;;10.40;99.90;;;;;;5017894;28;20193;-73
2024/01/03 04:39:44;;;;;;;1999.90;999.90;;;10.40;99.90;;;;;;5014174;28;20219;-73
2024/01/03 04:42:10;;;;;;;1999.90;999.90;;;10.50;99.90;;;;;;5012058;28;20204;-73
2024/01/03 04:44:36;;;;;;;1999.90;999.90;;;10.50;99.90;;;;;;5024164;28;20548;-73
2024/01/03 04:47:02;;;;;;;1999.90;999.90;;;10.50;99.90;;;;;;5034427;28;20178;-73
2024/01/03 04:49:29;;;;;;;1999.90;999.90;;;10.60;99.90;;;;;;5016543;28;20187;-73
2024/01/03 04:51:54;;;;;;;1999.90;999.90;;;10.60;99.90;;;;;;5026100;28;20182;-74
2024/01/03 04:54:20;;;;;;;1999.90;999.90;;;10.60;99.90;;;;;;5033524;28;20498;-71
2024/01/03 04:56:47;;;;;;;1999.90;999.90;;;10.50;99.90;;;;;;5031873;28;20799;-70
2024/01/03 04:59:12;;;;;;;1999.90;999.90;;;10.40;99.90;;;;;;5033182;28;20179;-71
2024/01/03 05:01:39;;;;;;;1999.90;999.90;;;10.30;99.90;;;;;;5022658;28;20473;-71
2024/01/03 05:04:05;;;;;;;1999.90;999.90;;;10.20;99.90;;;;;;5026884;28;20178;-73
2024/01/03 05:06:31;;;;;;;1999.90;999.90;;;10.10;99.90;;;;;;5032835;28;20422;-74
2024/01/03 05:08:56;;;;;;;1999.90;999.90;;;10.10;99.90;;;;;;5032931;28;20418;-73
2024/01/03 05:11:22;;;;;;;1999.90;999.90;;;10.90;99.90;;;;;;5032910;28;20661;-74
2024/01/03 05:13:48;;;;;;;1999.90;999.90;;;10.10;99.90;;;;;;5031182;28;20223;-72
2024/01/03 05:16:14;;;;;;;1999.90;999.90;;;10.10;99.90;;;;;;5032940;28;20227;-74
2024/01/03 05:18:39;;;;;;;1999.90;999.90;;;10.00;99.90;;;;;;5032729;28;20178;-73
2024/01/03 05:21:08;;;;;;;1999.90;999.90;;;10.00;99.90;;;;;;5032738;28;20414;-73
2024/01/03 05:23:33;;;;;;;1999.90;999.90;;;10.10;99.90;;;;;;5031152;28;20210;-74
2024/01/03 05:25:59;;;;;;;1999.90;999.90;;;10.10;99.90;;;;;;5024567;28;20478;-73
2024/01/03 05:28:24;;;;;;;1999.90;999.90;;;10.10;99.90;;;;;;5016288;28;20179;-72
2024/01/03 05:30:50;;;;;;;1999.90;999.90;;;10.10;99.90;;;;;;5020975;28;20178;-73
2024/01/03 05:33:16;;;;;;;1999.90;999.90;;;10.10;99.90;;;;;;5019499;28;20607;-73
2024/01/03 05:35:41;;;;;;;1999.90;999.90;;;10.10;99.90;;;;;;5030206;28;20179;-73
2024/01/03 05:38:07;;;;;;;1999.90;999.90;;;10.10;99.90;;;;;;5012776;28;20194;-73
2024/01/03 05:40:33;;;;;;;1999.90;999.90;;;10.10;99.90;;;;;;5011556;28;20180;-71
2024/01/03 05:42:58;;;;;;;1999.90;999.90;;;10.10;99.90;;;;;;5025097;28;20588;-73
2024/01/03 05:45:24;;;;;;;1999.90;999.90;;;10.10;99.90;;;;;;5032291;28;20283;-73
2024/01/03 05:47:49;;;;;;;1999.90;999.90;;;10.20;99.90;;;;;;5016083;28;20174;-72
2024/01/03 05:50:15;;;;;;;1999.90;999.90;;;10.10;99.90;;;;;;5032205;28;20559;-73
2024/01/03 05:52:41;;;;;;;1999.90;999.90;;;10.10;99.90;;;;;;5029830;28;20202;-72
2024/01/03 05:55:07;;;;;;;1999.90;999.90;;;10.20;99.90;;;;;;5024792;28;20517;-72
2024/01/03 05:57:33;;;;;;;1999.90;999.90;;;10.20;99.90;;;;;;5032056;28;20175;-73
2024/01/03 05:59:59;;;;;;;1999.90;999.90;;;10.30;99.90;;;;;;5031714;28;20410;-73
2024/01/03 06:02:24;;;;;;;1999.90;999.90;;;10.30;99.90;;;;;;5031503;28;21162;-73
2024/01/03 06:04:50;;;;;;;1999.90;999.90;;;10.30;99.90;;;;;;5031892;28;20181;-73
2024/01/03 06:07:15;;;;;;;1999.90;999.90;;;10.40;99.90;;;;;;5025332;28;20234;-73
2024/01/03 06:09:41;;;;;;;1999.90;999.90;;;10.40;99.90;;;;;;5012151;28;20176;-73
2024/01/03 06:12:08;;;;;;;1999.90;999.90;;;10.50;99.90;;;;;;5025589;28;20214;-73
2024/01/03 06:14:33;;;;;;;1999.90;999.90;;;10.50;99.90;;;;;;5030977;28;20280;-74
2024/01/03 06:16:59;;;;;;;1999.90;999.90;;;10.60;99.90;;;;;;5023367;28;20461;-73
2024/01/03 06:19:24;;;;;;;1999.90;999.90;;;10.60;99.90;;;;;;5031957;28;20179;-73
2024/01/03 06:21:50;;;;;;;1999.90;999.90;;;10.70;99.90;;;;;;5031692;28;20260;-73
2024/01/03 06:24:16;;;;;;;1999.90;999.90;;;10.70;99.90;;;;;;5031926;28;20644;-73
2024/01/03 06:26:42;;;;;;;1999.90;999.90;;;10.70;99.90;;;;;;5031673;28;20192;-74
2024/01/03 06:29:08;;;;;;;1999.90;999.90;;;10.70;99.90;;;;;;5031731;28;20183;-74
2024/01/03 06:31:34;;;;;;;1999.90;999.90;;;10.80;99.90;;;;;;5031026;28;21010;-72
2024/01/03 06:34:00;;;;;;;1999.90;999.90;;;10.80;99.90;;;;;;5028680;28;20480;-73
2024/01/03 06:36:25;;;;;;;1999.90;999.90;;;10.80;99.90;;;;;;5031967;28;20248;-73
2024/01/03 06:38:51;;;;;;;1999.90;999.90;;;10.90;99.90;;;;;;5031881;28;20188;-73
2024/01/03 06:41:17;;;;;;;1999.90;999.90;;;10.90;99.90;;;;;;5031926;28;20206;-73
2024/01/03 06:43:44;;;;;;;1999.90;999.90;;;10.90;99.90;;;;;;5031672;28;20251;-73
2024/01/03 06:46:10;;;;;;;1999.90;999.90;;;10.80;99.90;;;;;;5030619;28;20446;-73
2024/01/03 06:48:36;;;;;;;1999.90;999.90;;;10.80;99.90;;;;;;5031937;28;20440;-73
2024/01/03 06:51:04;;;;;;;1999.90;999.90;;;10.80;99.90;;;;;;5031803;28;21085;-73
2024/01/03 06:53:30;;;;;;;1999.90;999.90;;;10.70;99.90;;;;;;5031586;28;20218;-73
2024/01/03 06:55:56;;;;;;;1999.90;999.90;;;10.80;99.90;;;;;;5031868;28;20930;-72
2024/01/03 06:58:22;;;;;;;1999.90;999.90;;;10.70;99.90;;;;;;5031860;28;20414;-73
2024/01/03 07:00:48;;;;;;;1999.90;999.90;;;10.70;99.90;;;;;;5031933;28;20426;-73
2024/01/03 07:03:14;;;;;;;1999.90;999.90;;;10.70;99.90;;;;;;5031872;28;20341;-73
2024/01/03 07:05:40;;;;;;;1999.90;999.90;;;10.70;99.90;;;;;;5031953;28;20406;-72
2024/01/03 07:08:07;;;;;;;1999.90;999.90;;;10.70;99.90;;;;;;5031632;28;20414;-73
2024/01/03 07:10:33;;;;;;;1999.90;999.90;;;10.70;99.90;;;;;;5031549;28;20174;-74
2024/01/03 07:13:01;;;;;;;1999.90;999.90;;;10.70;99.90;;;;;;5032689;28;20932;-72
2024/01/03 07:15:27;;;;;;;1999.90;999.90;;;10.80;99.90;;;;;;5035385;28;20414;-73
2024/01/03 07:17:55;;;;;;;1999.90;999.90;;;10.80;99.90;;;;;;5036340;28;20414;-73
2024/01/03 07:20:22;;;;;;;1999.90;999.90;;;10.90;99.90;;;;;;5035032;28;20425;-73
2024/01/03 07:22:48;;;;;;;1999.90;999.90;;;10.90;99.90;;;;;;5035534;28;20989;-74
2024/01/03 07:25:19;;;;;;;1999.90;999.90;;;10.90;99.90;;;;;;5033989;28;20440;-72
2024/01/03 07:27:45;;;;;;;1999.90;999.90;;;10.80;99.90;;;;;;5035018;28;20925;-73
2024/01/03 07:30:11;;;;;;;1999.90;999.90;;;10.80;99.90;;;;;;5035088;28;20405;-72
2024/01/03 07:32:37;;;;;;;1999.90;999.90;;;10.80;99.90;;;;;;5033643;28;20445;-72
2024/01/03 07:35:03;;;;;;;1999.90;999.90;;;10.80;99.90;;;;;;5035080;28;20418;-73
2024/01/03 07:37:28;;;;;;;1999.90;999.90;;;10.70;99.90;;;;;;5034902;28;20417;-74
2024/01/03 07:39:54;;;;;;;1999.90;999.90;;;10.80;99.90;;;;;;5034727;28;20505;-73
2024/01/03 07:42:20;;;;;;;1999.90;999.90;;;10.80;99.90;;;;;;5034323;28;20207;-72
2024/01/03 07:44:45;;;;;;;1999.90;999.90;;;10.70;99.90;;;;;;5033464;28;20171;-73
2024/01/03 07:47:11;;;;;;;1999.90;999.90;;;10.70;99.90;;;;;;5033720;28;20175;-74
2024/01/03 07:49:38;;;;;;;1999.90;999.90;;;10.70;99.90;;;;;;5034767;28;20167;-74
2024/01/03 07:52:04;;;;;;;1999.90;999.90;;;10.60;99.90;;;;;;5034494;28;20512;-72
2024/01/03 07:54:30;;;;;;;1999.90;999.90;;;10.70;99.90;;;;;;5035414;28;20410;-73
2024/01/03 07:56:57;;;;;;;1999.90;999.90;;;10.70;99.90;;;;;;5034805;28;20407;-72
2024/01/03 07:59:26;;;;;;;1999.90;999.90;;;10.70;99.90;;;;;;5034886;28;20497;-73
2024/01/03 08:01:51;;;;;;;1999.90;999.90;;;10.70;99.90;;;;;;5034303;28;20481;-73
2024/01/03 08:04:17;;;;;;;1999.90;999.90;;;10.70;99.90;;;;;;5034406;28;20446;-72
2024/01/03 08:06:45;;;;;;;1999.90;999.90;;;10.70;99.90;;;;;;5034361;28;20171;-72
2024/01/03 08:09:10;;;;;;;1999.90;999.90;;;10.70;99.90;;;;;;5034309;28;20596;-73
2024/01/03 08:11:36;;;;;;;1999.90;999.90;;;10.70;99.90;;;;;;5034196;28;20414;-73
2024/01/03 08:14:02;;;;;;;1999.90;999.90;;;10.70;99.90;;;;;;5033231;28;20210;-73
2024/01/03 08:16:28;;;;;;;1999.90;999.90;;;10.70;99.90;;;;;;5034943;28;20222;-72
2024/01/03 08:18:54;;;;;;;1999.90;999.90;;;10.80;99.90;;;;;;5033998;28;20184;-71
2024/01/03 08:21:19;;;;;;;1999.90;999.90;;;10.80;99.90;;;;;;5027288;28;20203;-73
2024/01/03 08:23:45;;;;;;;1999.90;999.90;;;10.70;99.90;;;;;;5033126;28;20203;-70
2024/01/03 08:26:14;;;;;;;1999.90;999.90;;;10.70;99.90;;;;;;5034077;28;20406;-72
2024/01/03 08:28:41;;;;;;;1999.90;999.90;;;10.70;99.90;;;;;;5034012;28;20253;-72
2024/01/03 08:31:13;;;;;;;1999.90;999.90;;;10.70;99.90;;;;;;5034607;28;20414;-72
2024/01/03 08:33:38;;;;;;;1999.90;999.90;;;10.70;99.90;;;;;;5033615;28;20441;-72
2024/01/03 08:36:06;;;;;;;1999.90;999.90;;;10.70;99.90;;;;;;5033648;28;20410;-72
2024/01/03 08:38:32;;;;;;;1999.90;999.90;;;10.70;99.90;;;;;;5032819;28;20413;-72
2024/01/03 08:40:57;;;;;;;1999.90;999.90;;;10.60;99.90;;;;;;5034406;28;20416;-72
2024/01/03 08:43:23;;;;;;;1999.90;999.90;;;10.60;99.90;;;;;;5033476;28;20214;-72
2024/01/03 08:45:48;;;;;;;1999.90;999.90;;;10.50;99.90;;;;;;5033559;28;20177;-72
2024/01/03 08:48:14;;;;;;;1999.90;999.90;;;10.50;99.90;;;;;;5033486;28;20178;-72
2024/01/03 08:50:41;;;;;;;1999.90;999.90;;;10.40;99.90;;;;;;5033534;28;20563;-72
2024/01/03 08:53:06;;;;;;;1999.90;999.90;;;10.30;99.90;;;;;;5033257;28;20517;-72
2024/01/03 08:55:32;;;;;;;1999.90;999.90;;;10.20;99.90;;;;;;5033382;28;20436;-72
2024/01/03 08:57:58;;;;;;;1999.90;999.90;;;10.10;99.90;;;;;;5033420;28;20183;-73
2024/01/03 09:00:24;;;;;;;1999.90;999.90;;;10.10;99.90;;;;;;5033202;28;20187;-72
2024/01/03 09:02:50;;;;;;;1999.90;999.90;;;10.00;99.90;;;;;;5032802;28;20211;-72
2024/01/03 09:05:16;;;;;;;1999.90;999.90;;;10.00;99.90;;;;;;5033365;28;20440;-72
2024/01/03 09:07:45;;;;;;;1999.90;999.90;;;9.90;99.90;;;;;;5033128;28;20417;-73
2024/01/03 09:10:11;;;;;;;1999.90;999.90;;;9.90;99.90;;;;;;5033001;28;20174;-73
2024/01/03 09:12:36;;;;;;;1999.90;999.90;;;9.90;99.90;;;;;;5032613;28;20456;-73
2024/01/03 09:15:02;;;;;;;1999.90;999.90;;;10.00;99.90;;;;;;5030112;28;20191;-73
2024/01/03 09:17:28;;;;;;;1999.90;999.90;;;10.00;99.90;;;;;;5030169;28;20236;-73
2024/01/03 09:19:53;;;;;;;1999.90;999.90;;;9.90;99.90;;;;;;5031552;28;20175;-73
2024/01/03 09:22:19;;;;;;;1999.90;999.90;;;9.90;99.90;;;;;;5032503;28;20202;-72
2024/01/03 09:24:45;;;;;;;1999.90;999.90;;;10.00;99.90;;;;;;5033122;28;20165;-72
2024/01/03 09:27:11;;;;;;;1999.90;999.90;;;10.10;99.90;;;;;;5033401;28;20407;-72
2024/01/03 09:29:36;;;;;;;1999.90;999.90;;;10.20;99.90;;;;;;5032771;28;20170;-72
2024/01/03 09:32:02;;;;;;;1999.90;999.90;;;10.20;99.90;;;;;;5032526;28;20658;-72
2024/01/03 09:34:28;;;;;;;1999.90;999.90;;;10.40;99.90;;;;;;5033151;28;20247;-72
2024/01/03 09:36:53;;;;;;;1999.90;999.90;;;10.50;99.90;;;;;;5032940;28;20177;-72
2024/01/03 09:39:19;;;;;;;1999.90;999.90;;;10.60;99.90;;;;;;5032938;28;20180;-74
2024/01/03 09:41:46;;;;;;;1999.90;999.90;;;10.80;99.90;;;;;;5032624;28;20200;-74
2024/01/03 09:44:13;;;;;;;1999.90;999.90;;;10.90;99.90;;;;;;5032389;28;20163;-72
2024/01/03 09:46:39;;;;;;;1999.90;999.90;;;11.10;99.90;;;;;;5026847;28;20430;-73
2024/01/03 09:49:05;;;;;;;1999.90;999.90;;;11.20;99.90;;;;;;5027286;28;20490;-72
2024/01/03 09:51:31;;;;;;;1999.90;999.90;;;11.30;99.30;;;;;;5031766;28;20497;-73
2024/01/03 09:53:57;;;;;;;1999.90;999.90;;;11.40;99.20;;;;;;5031268;28;20206;-72
2024/01/03 09:56:22;;;;;;;1999.90;999.90;;;11.50;98.70;;;;;;5032053;28;20443;-72
2024/01/03 09:58:48;;;;;;;1999.90;999.90;;;11.50;96.70;;;;;;5031744;28;20446;-72
2024/01/03 10:01:14;;;;;;;1999.90;999.90;;;11.50;93.70;;;;;;5029476;28;20720;-72
2024/01/03 10:03:39;;;;;;;1999.90;999.90;;;11.70;95.20;;;;;;5027521;28;20215;-73
2024/01/03 10:06:11;;;;;;;1999.90;999.90;;;11.80;95.20;;;;;;5030424;28;20314;-72
2024/01/03 10:08:37;;;;;;;1999.90;999.90;;;11.90;93.40;;;;;;5031124;28;20172;-72
2024/01/03 10:11:19;;;;;;;1999.90;999.90;;;11.90;95.10;;;;;;5031723;28;20411;-74
2024/01/03 10:13:45;;;;;;;1999.90;999.90;;;11.70;97.20;;;;;;5031295;28;20320;-72
2024/01/03 10:16:11;;;;;;;1999.90;999.90;;;11.50;99.90;;;;;;5030537;28;20446;-71
2024/01/03 10:18:37;;;;;;;1999.90;999.90;;;11.30;99.90;;;;;;5031463;28;20440;-71
2024/01/03 10:21:12;;;;;;;1999.90;999.90;;;11.30;99.90;;;;;;5030946;28;20509;-73
2024/01/03 10:23:38;;;;;;;1999.90;999.90;;;11.40;99.90;;;;;;5030979;28;20204;-70
2024/01/03 10:26:04;;;;;;;1999.90;999.90;;;11.40;99.90;;;;;;5011638;28;20949;-70
2024/01/03 10:28:29;;;;;;;1999.90;999.90;;;11.50;99.90;;;;;;5030951;28;20182;-72
2024/01/03 10:30:57;;;;;;;1999.90;999.90;;;11.50;99.90;;;;;;5027118;28;20183;-72
2024/01/03 10:33:22;;;;;;;1999.90;999.90;;;11.50;99.90;;;;;;5022142;28;20206;-72
2024/01/03 10:35:48;;;;;;;1999.90;999.90;;;11.60;99.90;;;;;;5028011;28;20497;-72
2024/01/03 10:38:15;;;;;;;1999.90;999.90;;;11.10;99.90;;;;;;5030458;28;20191;-72
2024/01/03 10:40:41;;;;;;;1999.90;999.90;;;11.70;99.90;;;;;;5031033;28;20226;-72
2024/01/03 10:43:10;;;;;;;1999.90;999.90;;;11.70;99.90;;;;;;5030054;28;20466;-73
2024/01/03 10:45:36;;;;;;;1999.90;999.90;;;11.60;99.90;;;;;;5029010;28;20523;-73
2024/01/03 10:48:03;;;;;;;1999.90;999.90;;;11.50;99.90;;;;;;5033194;28;20418;-72
2024/01/03 10:50:28;;;;;;;1999.90;999.90;;;11.50;99.90;;;;;;5033803;28;20432;-73
2024/01/03 10:52:58;;;;;;;1999.90;999.90;;;11.50;99.90;;;;;;5033920;28;20442;-72
2024/01/03 10:55:33;;;;;;;1999.90;999.90;;;11.50;99.90;;;;;;5034769;28;20180;-73
2024/01/03 10:58:11;;;;;;;1999.90;999.90;;;11.30;99.90;;;;;;5034997;28;20561;-72
2024/01/03 11:01:05;;;;;;;1999.90;999.90;;;11.30;99.90;;;;;;5034570;28;20955;-72
2024/01/03 11:03:49;;;;;;;1999.90;999.90;;;11.30;99.90;;;;;;5034082;28;20461;-73
2024/01/03 11:06:20;;;;;;;1999.90;999.90;;;11.50;99.90;;;;;;5032139;28;20415;-73
2024/01/03 11:08:59;;;;;;;1999.90;999.90;;;11.50;99.90;;;;;;5034371;28;20399;-73
2024/01/03 11:11:31;;;;;;;1999.90;999.90;;;11.50;99.90;;;;;;5034816;28;20407;-73
2024/01/03 11:13:58;;;;;;;1999.90;999.90;;;11.60;99.90;;;;;;5034072;28;20442;-72
2024/01/03 11:16:40;;;;;;;1999.90;999.90;;;11.70;99.90;;;;;;5034328;28;20412;-72
2024/01/03 11:19:09;;;;;;;1999.90;999.90;;;11.80;99.90;;;;;;5034351;28;20767;-72
2024/01/03 11:21:35;;;;;;;1999.90;999.90;;;11.90;99.90;;;;;;5034278;28;20422;-72
2024/01/03 11:24:24;;;;;;;1999.90;999.90;;;12.10;99.90;;;;;;5033530;28;20446;-72
2024/01/03 11:26:56;;;;;;;1999.90;999.90;;;12.30;98.80;;;;;;5027055;28;20185;-73
2024/01/03 11:32:10;;;;;;;1999.90;999.90;;;12.80;88.20;;;;;;5026159;28;20424;-73
2024/01/03 11:34:47;;;;;;;1999.90;999.90;;;13.10;80.40;;;;;;5033920;28;20438;-73
2024/01/03 11:37:19;;;;;;;1999.90;999.90;;;13.30;72.90;;;;;;5030350;28;20466;-71
2024/01/03 11:39:52;;;;;;;1999.90;999.90;;;13.40;65.10;;;;;;5034625;28;20428;-73
2024/01/03 11:42:21;;;;;;;1999.90;999.90;;;13.60;62.30;;;;;;5033910;28;20472;-73
2024/01/03 11:44:58;;;;;;;1999.90;999.90;;;13.50;57.70;;;;;;5034647;28;20424;-72
2024/01/03 11:47:24;;;;;;;1999.90;999.90;;;13.20;65.20;;;;;;5033273;28;20507;-72
2024/01/03 11:49:57;;;;;;;1999.90;999.90;;;13.30;80.90;;;;;;5033501;28;20417;-73
2024/01/03 11:52:24;;;;;;;1999.90;999.90;;;13.70;69.50;;;;;;5027232;28;20199;-73
2024/01/03 11:54:51;;;;;;;1999.90;999.90;;;14.00;51.00;;;;;;5034693;28;20415;-73
2024/01/03 11:57:20;;;;;;;1999.90;999.90;;;14.40;51.10;;;;;;5034562;28;20419;-72
2024/01/03 11:59:46;;;;;;;1999.90;999.90;;;14.50;49.20;;;;;;5032359;28;20415;-72